Avon, MN (56310)

8:13 AM CST on February 11, 2016 (GMT -0600)
Saint Johns University Campus | | Change Station
CLOSE
Current Station
Personal Weather Station
Location: Collegeville, MN
Elevation: 1200 ft
Nearby Weather Stations

Elev 1200 ft 45.58 °N, 94.39 °W | Updated 23 seconds ago

Mostly Cloudy
Mostly Cloudy
-1.7 °F
Feels Like -2 °F
N
0.0
Wind Variable Wind from NE
Gusts 0.0 mph

Today
High -- | Low -- °F
--% Chance of Precip.
Yesterday
High -- | Low -- °F
Precip. -- in
Pressure 30.41 in
Visibility 10.0 miles
Clouds Clear
Windchill -2 °F
Dew Point -6 °F
Humidity 83%
Rainfall 0.00 in
Snow Depth Not available.
7:26 AM 5:38 PM
Waxing Crescent, 12% visible
METAR KSTC 111353Z 00000KT 10SM CLR M20/M22 A3030 RMK AO2 SLP296 T12001222
Pressure 30.41 in
Visibility 10.0 miles
Clouds Clear
Windchill -2 °F
Dew Point -6 °F
Humidity 83%
Rainfall 0.00 in
Snow Depth Not available.
7:26 AM 5:38 PM
Waxing Crescent, 12% visible
METAR KSTC 111353Z 00000KT 10SM CLR M20/M22 A3030 RMK AO2 SLP296 T12001222

10-Day Weather Forecast

Almanac

Astronomy

Feb. 11, 2016 Rise Set
Actual Time
Civil Twilight
Nautical Twilight
Astronomical Twilight
Moon
Length of Visible Light
Length of Day
Tomorrow will be .
, % of the Moon is Illuminated

Today's Extremes

State Highs State Lows

Community

WunderPhotos

Upload Photos

1,892,048 photos uploaded!

WunderBlog® & News

Nearby

Air Quality

  Air Quality AQ Index Pollutant
Not available.

Snow Depth

Station Depth Elevation

Earthquake Activity

City Distance Mag. Time & Date
Minimum magnitude displayed is 2.5.

Coastal Water Temperatures

Place Temperature

Stations

Nearby Weather Stations

Station Location Temp. Windchill Dew Point Humidity Wind Precip. Elev Updated Type
                   

Watches & Warnings

There are currently no watches in effect.